sensor_id;sensor_type;location;lat;lon;timestamp;temperature;humidity
19224;DHT22;9746;47.180;9.776;2023-02-26T06:52:48;-0.90;99.90
19224;DHT22;9746;47.180;9.776;2023-02-26T06:55:16;-0.90;99.90
19224;DHT22;9746;47.180;9.776;2023-02-26T06:57:44;-0.90;99.90
19224;DHT22;9746;47.180;9.776;2023-02-26T07:00:13;-0.90;99.90
19224;DHT22;9746;47.180;9.776;2023-02-26T07:06:06;-0.90;99.90
19224;DHT22;9746;47.180;9.776;2023-02-26T07:08:39;-1.00;99.90
19224;DHT22;9746;47.180;9.776;2023-02-26T07:11:08;-0.90;99.90
19224;DHT22;9746;47.180;9.776;2023-02-26T07:13:36;-0.80;99.90
19224;DHT22;9746;47.180;9.776;2023-02-26T07:16:07;-0.80;99.90
19224;DHT22;9746;47.180;9.776;2023-02-26T07:18:34;-0.70;99.90
19224;DHT22;9746;47.180;9.776;2023-02-26T07:21:03;-0.70;99.90
19224;DHT22;9746;47.180;9.776;2023-02-26T07:23:50;-0.70;99.90
19224;DHT22;9746;47.180;9.776;2023-02-26T07:26:50;-0.70;99.90
19224;DHT22;9746;47.180;9.776;2023-02-26T07:29:23;-0.70;99.90
19224;DHT22;9746;47.180;9.776;2023-02-26T07:32:11;-0.80;99.90
19224;DHT22;9746;47.180;9.776;2023-02-26T07:34:38;-0.90;99.90
19224;DHT22;9746;47.180;9.776;2023-02-26T07:37:18;-1.00;99.90
19224;DHT22;9746;47.180;9.776;2023-02-26T07:39:46;-1.00;99.90
19224;DHT22;9746;47.180;9.776;2023-02-26T07:42:50;-0.90;99.90
19224;DHT22;9746;47.180;9.776;2023-02-26T07:45:18;-1.00;99.90
19224;DHT22;9746;47.180;9.776;2023-02-26T07:47:55;-1.00;99.90
19224;DHT22;9746;47.180;9.776;2023-02-26T07:50:23;-1.00;99.90
19224;DHT22;9746;47.180;9.776;2023-02-26T07:52:59;-1.00;99.90
19224;DHT22;9746;47.180;9.776;2023-02-26T07:55:28;-0.90;99.90
19224;DHT22;9746;47.180;9.776;2023-02-26T07:58:01;-0.80;99.90
19224;DHT22;9746;47.180;9.776;2023-02-26T08:00:31;-0.70;99.90
19224;DHT22;9746;47.180;9.776;2023-02-26T08:03:12;-0.70;99.90
19224;DHT22;9746;47.180;9.776;2023-02-26T08:05:40;-0.60;99.90
19224;DHT22;9746;47.180;9.776;2023-02-26T08:08:12;-0.50;99.90
19224;DHT22;9746;47.180;9.776;2023-02-26T08:10:44;-0.50;99.90
19224;DHT22;9746;47.180;9.776;2023-02-26T08:13:24;-0.50;99.90
19224;DHT22;9746;47.180;9.776;2023-02-26T08:15:52;-0.60;99.90
19224;DHT22;9746;47.180;9.776;2023-02-26T08:18:26;-0.70;99.90
19224;DHT22;9746;47.180;9.776;2023-02-26T08:20:53;-0.60;99.90
19224;DHT22;9746;47.180;9.776;2023-02-26T08:23:44;-0.60;99.90
19224;DHT22;9746;47.180;9.776;2023-02-26T08:26:13;-0.70;99.90
19224;DHT22;9746;47.180;9.776;2023-02-26T08:28:55;-0.70;99.90
19224;DHT22;9746;47.180;9.776;2023-02-26T08:31:24;-0.70;99.90
19224;DHT22;9746;47.180;9.776;2023-02-26T08:37:14;-0.60;99.90
19224;DHT22;9746;47.180;9.776;2023-02-26T08:39:42;-0.60;99.90
19224;DHT22;9746;47.180;9.776;2023-02-26T08:42:39;-0.60;99.90
19224;DHT22;9746;47.180;9.776;2023-02-26T08:45:08;-0.60;99.90
19224;DHT22;9746;47.180;9.776;2023-02-26T08:47:36;-0.60;99.90
19224;DHT22;9746;47.180;9.776;2023-02-26T08:50:08;-0.60;99.90
19224;DHT22;9746;47.180;9.776;2023-02-26T08:52:48;-0.50;99.90
19224;DHT22;9746;47.180;9.776;2023-02-26T08:55:15;-0.40;99.90
19224;DHT22;9746;47.180;9.776;2023-02-26T09:01:02;-0.30;99.90
19224;DHT22;9746;47.180;9.776;2023-02-26T09:06:51;-0.20;99.90
19224;DHT22;9746;47.180;9.776;2023-02-26T09:09:20;0.10;99.90
19224;DHT22;9746;47.180;9.776;2023-02-26T09:11:48;0.30;99.90
19224;DHT22;9746;47.180;9.776;2023-02-26T09:17:39;0.50;99.90
19224;DHT22;9746;47.180;9.776;2023-02-26T09:20:13;0.60;99.90
19224;DHT22;9746;47.180;9.776;2023-02-26T09:26:03;0.60;99.90
19224;DHT22;9746;47.180;9.776;2023-02-26T09:31:53;0.60;99.90
19224;DHT22;9746;47.180;9.776;2023-02-26T09:37:47;0.70;99.90
19224;DHT22;9746;47.180;9.776;2023-02-26T09:40:28;0.70;99.90
19224;DHT22;9746;47.180;9.776;2023-02-26T09:46:50;0.80;99.90
19224;DHT22;9746;47.180;9.776;2023-02-26T09:56:19;1.30;99.90
19224;DHT22;9746;47.180;9.776;2023-02-26T10:02:18;1.90;99.90
19224;DHT22;9746;47.180;9.776;2023-02-26T10:08:15;2.20;99.90
19224;DHT22;9746;47.180;9.776;2023-02-26T10:10:49;2.30;99.90
19224;DHT22;9746;47.180;9.776;2023-02-26T10:13:24;2.40;99.90
19224;DHT22;9746;47.180;9.776;2023-02-26T10:16:06;2.20;99.90
19224;DHT22;9746;47.180;9.776;2023-02-26T10:18:39;2.30;99.90
19224;DHT22;9746;47.180;9.776;2023-02-26T10:21:12;2.30;99.90
19224;DHT22;9746;47.180;9.776;2023-02-26T10:23:49;2.20;99.90
19224;DHT22;9746;47.180;9.776;2023-02-26T10:26:23;2.20;99.90
19224;DHT22;9746;47.180;9.776;2023-02-26T10:29:03;2.30;99.90
19224;DHT22;9746;47.180;9.776;2023-02-26T10:31:39;2.50;99.90
19224;DHT22;9746;47.180;9.776;2023-02-26T10:34:20;2.80;99.90
19224;DHT22;9746;47.180;9.776;2023-02-26T10:36:56;3.30;99.90
19224;DHT22;9746;47.180;9.776;2023-02-26T10:39:41;3.70;99.90
19224;DHT22;9746;47.180;9.776;2023-02-26T10:42:14;4.20;99.90
19224;DHT22;9746;47.180;9.776;2023-02-26T10:45:29;4.40;99.90
19224;DHT22;9746;47.180;9.776;2023-02-26T10:48:07;4.40;99.90
19224;DHT22;9746;47.180;9.776;2023-02-26T10:50:56;4.50;99.90
19224;DHT22;9746;47.180;9.776;2023-02-26T10:53:25;4.90;99.90
19224;DHT22;9746;47.180;9.776;2023-02-26T10:56:08;5.40;99.90
19224;DHT22;9746;47.180;9.776;2023-02-26T10:58:37;5.80;99.90
19224;DHT22;9746;47.180;9.776;2023-02-26T11:07:37;6.30;99.90
19224;DHT22;9746;47.180;9.776;2023-02-26T11:13:25;6.50;99.90
19224;DHT22;9746;47.180;9.776;2023-02-26T11:18:53;6.90;99.90
19224;DHT22;9746;47.180;9.776;2023-02-26T11:24:58;6.60;99.90
19224;DHT22;9746;47.180;9.776;2023-02-26T11:27:31;6.10;99.90
19224;DHT22;9746;47.180;9.776;2023-02-26T11:30:09;6.20;99.90
19224;DHT22;9746;47.180;9.776;2023-02-26T11:32:38;6.20;99.90
19224;DHT22;9746;47.180;9.776;2023-02-26T11:35:08;6.10;99.90
19224;DHT22;9746;47.180;9.776;2023-02-26T11:37:40;6.00;99.90
19224;DHT22;9746;47.180;9.776;2023-02-26T11:40:34;6.10;99.90
19224;DHT22;9746;47.180;9.776;2023-02-26T11:43:05;6.30;99.90
19224;DHT22;9746;47.180;9.776;2023-02-26T11:45:42;6.40;99.90
19224;DHT22;9746;47.180;9.776;2023-02-26T11:48:18;6.30;99.90
19224;DHT22;9746;47.180;9.776;2023-02-26T11:54:20;6.50;99.90
19224;DHT22;9746;47.180;9.776;2023-02-26T11:56:52;6.80;99.90
19224;DHT22;9746;47.180;9.776;2023-02-26T11:59:30;7.00;99.90
19224;DHT22;9746;47.180;9.776;2023-02-26T12:02:09;7.30;99.90
19224;DHT22;9746;47.180;9.776;2023-02-26T12:04:41;6.80;99.90
19224;DHT22;9746;47.180;9.776;2023-02-26T12:07:12;6.60;99.90
19224;DHT22;9746;47.180;9.776;2023-02-26T12:09:53;6.30;99.90
19224;DHT22;9746;47.180;9.776;2023-02-26T12:12:39;6.10;99.90
19224;DHT22;9746;47.180;9.776;2023-02-26T12:15:22;6.10;99.90
19224;DHT22;9746;47.180;9.776;2023-02-26T12:18:14;6.30;99.90
19224;DHT22;9746;47.180;9.776;2023-02-26T12:24:24;6.40;99.90
19224;DHT22;9746;47.180;9.776;2023-02-26T12:30:38;6.20;99.90
19224;DHT22;9746;47.180;9.776;2023-02-26T12:33:21;5.80;99.90
19224;DHT22;9746;47.180;9.776;2023-02-26T12:36:08;5.70;99.90
19224;DHT22;9746;47.180;9.776;2023-02-26T12:38:48;5.40;99.90
19224;DHT22;9746;47.180;9.776;2023-02-26T12:45:04;5.40;99.90
19224;DHT22;9746;47.180;9.776;2023-02-26T12:47:43;5.40;99.90
19224;DHT22;9746;47.180;9.776;2023-02-26T12:50:39;5.10;99.90
19224;DHT22;9746;47.180;9.776;2023-02-26T12:53:42;4.90;99.90
19224;DHT22;9746;47.180;9.776;2023-02-26T12:59:32;4.80;99.90
19224;DHT22;9746;47.180;9.776;2023-02-26T13:02:19;4.60;99.90
19224;DHT22;9746;47.180;9.776;2023-02-26T13:05:11;4.20;99.90
19224;DHT22;9746;47.180;9.776;2023-02-26T13:07:50;4.10;99.90
19224;DHT22;9746;47.180;9.776;2023-02-26T13:10:47;4.20;99.90
19224;DHT22;9746;47.180;9.776;2023-02-26T13:13:43;4.00;99.90
19224;DHT22;9746;47.180;9.776;2023-02-26T13:16:34;4.10;99.90
19224;DHT22;9746;47.180;9.776;2023-02-26T13:19:17;3.80;99.90
19224;DHT22;9746;47.180;9.776;2023-02-26T13:21:52;3.70;99.90
19224;DHT22;9746;47.180;9.776;2023-02-26T13:24:29;3.80;99.90
19224;DHT22;9746;47.180;9.776;2023-02-26T13:27:31;4.10;99.90
19224;DHT22;9746;47.180;9.776;2023-02-26T13:30:21;4.20;99.90
19224;DHT22;9746;47.180;9.776;2023-02-26T13:32:56;4.40;99.90
19224;DHT22;9746;47.180;9.776;2023-02-26T13:35:46;4.70;99.90
19224;DHT22;9746;47.180;9.776;2023-02-26T13:38:22;5.40;99.90
19224;DHT22;9746;47.180;9.776;2023-02-26T13:41:07;6.10;99.90
19224;DHT22;9746;47.180;9.776;2023-02-26T13:44:11;7.00;99.90
19224;DHT22;9746;47.180;9.776;2023-02-26T13:49:53;7.80;99.90
19224;DHT22;9746;47.180;9.776;2023-02-26T13:52:25;7.60;99.90
19224;DHT22;9746;47.180;9.776;2023-02-26T13:54:55;7.60;99.90
19224;DHT22;9746;47.180;9.776;2023-02-26T13:57:37;7.50;99.90
19224;DHT22;9746;47.180;9.776;2023-02-26T14:00:24;7.90;99.90
19224;DHT22;9746;47.180;9.776;2023-02-26T14:02:54;8.70;99.90
19224;DHT22;9746;47.180;9.776;2023-02-26T14:08:45;9.90;99.90
19224;DHT22;9746;47.180;9.776;2023-02-26T14:11:41;9.50;99.90
19224;DHT22;9746;47.180;9.776;2023-02-26T14:14:23;9.20;99.90
19224;DHT22;9746;47.180;9.776;2023-02-26T14:20:17;9.10;99.90
19224;DHT22;9746;47.180;9.776;2023-02-26T14:22:54;7.00;99.90
19224;DHT22;9746;47.180;9.776;2023-02-26T14:25:31;6.50;99.90
19224;DHT22;9746;47.180;9.776;2023-02-26T14:28:28;6.30;99.90
19224;DHT22;9746;47.180;9.776;2023-02-26T14:31:15;6.20;99.90
19224;DHT22;9746;47.180;9.776;2023-02-26T14:33:46;6.00;99.90
19224;DHT22;9746;47.180;9.776;2023-02-26T14:36:33;6.00;99.90
19224;DHT22;9746;47.180;9.776;2023-02-26T14:39:06;5.60;99.90
19224;DHT22;9746;47.180;9.776;2023-02-26T14:44:36;6.40;99.90
19224;DHT22;9746;47.180;9.776;2023-02-26T14:47:07;6.70;99.90
19224;DHT22;9746;47.180;9.776;2023-02-26T14:49:39;7.20;99.90
19224;DHT22;9746;47.180;9.776;2023-02-26T14:52:24;6.90;99.90
19224;DHT22;9746;47.180;9.776;2023-02-26T14:55:15;6.80;99.90
19224;DHT22;9746;47.180;9.776;2023-02-26T14:57:59;6.00;99.90
19224;DHT22;9746;47.180;9.776;2023-02-26T15:00:40;5.20;99.90
19224;DHT22;9746;47.180;9.776;2023-02-26T15:03:30;4.60;99.90
19224;DHT22;9746;47.180;9.776;2023-02-26T15:06:30;4.40;99.90
19224;DHT22;9746;47.180;9.776;2023-02-26T15:09:11;4.00;99.90
19224;DHT22;9746;47.180;9.776;2023-02-26T15:12:08;3.90;99.90
19224;DHT22;9746;47.180;9.776;2023-02-26T15:20:49;3.30;99.90
19224;DHT22;9746;47.180;9.776;2023-02-26T15:23:38;3.20;99.90
19224;DHT22;9746;47.180;9.776;2023-02-26T15:26:15;3.30;99.90
19224;DHT22;9746;47.180;9.776;2023-02-26T15:28:44;3.20;99.90
19224;DHT22;9746;47.180;9.776;2023-02-26T15:34:23;3.10;99.90
19224;DHT22;9746;47.180;9.776;2023-02-26T15:36:58;2.90;99.90
19224;DHT22;9746;47.180;9.776;2023-02-26T15:39:35;2.80;99.90
19224;DHT22;9746;47.180;9.776;2023-02-26T15:44:56;2.80;99.90
19224;DHT22;9746;47.180;9.776;2023-02-26T15:50:28;2.60;99.90
19224;DHT22;9746;47.180;9.776;2023-02-26T15:53:22;2.50;99.90
19224;DHT22;9746;47.180;9.776;2023-02-26T15:55:53;2.30;99.90
19224;DHT22;9746;47.180;9.776;2023-02-26T16:01:44;2.20;99.90
19224;DHT22;9746;47.180;9.776;2023-02-26T16:04:13;2.10;99.90
19224;DHT22;9746;47.180;9.776;2023-02-26T16:06:48;2.00;99.90
19224;DHT22;9746;47.180;9.776;2023-02-26T16:09:19;1.90;99.90
19224;DHT22;9746;47.180;9.776;2023-02-26T16:14:59;1.80;99.90
19224;DHT22;9746;47.180;9.776;2023-02-26T16:17:34;1.60;99.90
19224;DHT22;9746;47.180;9.776;2023-02-26T16:20:13;1.50;99.90
19224;DHT22;9746;47.180;9.776;2023-02-26T16:22:52;1.50;99.90
19224;DHT22;9746;47.180;9.776;2023-02-26T16:25:24;1.40;99.90
19224;DHT22;9746;47.180;9.776;2023-02-26T16:28:19;1.40;99.90
19224;DHT22;9746;47.180;9.776;2023-02-26T16:30:51;1.40;99.90
19224;DHT22;9746;47.180;9.776;2023-02-26T16:33:32;1.40;99.90
19224;DHT22;9746;47.180;9.776;2023-02-26T16:36:04;1.40;99.90
19224;DHT22;9746;47.180;9.776;2023-02-26T16:38:44;1.50;99.90
19224;DHT22;9746;47.180;9.776;2023-02-26T16:41:13;1.50;99.90
19224;DHT22;9746;47.180;9.776;2023-02-26T16:43:51;1.50;99.90
19224;DHT22;9746;47.180;9.776;2023-02-26T16:46:30;1.50;99.90
19224;DHT22;9746;47.180;9.776;2023-02-26T16:49:01;1.50;99.90
19224;DHT22;9746;47.180;9.776;2023-02-26T16:51:31;1.40;99.90
19224;DHT22;9746;47.180;9.776;2023-02-26T16:54:05;1.40;99.90
19224;DHT22;9746;47.180;9.776;2023-02-26T16:56:39;1.30;99.90
19224;DHT22;9746;47.180;9.776;2023-02-26T16:59:11;1.30;99.90
19224;DHT22;9746;47.180;9.776;2023-02-26T17:01:49;1.20;99.90
19224;DHT22;9746;47.180;9.776;2023-02-26T17:04:18;1.10;99.90
19224;DHT22;9746;47.180;9.776;2023-02-26T17:06:49;1.10;99.90
19224;DHT22;9746;47.180;9.776;2023-02-26T17:09:34;1.00;99.90
19224;DHT22;9746;47.180;9.776;2023-02-26T17:12:43;1.00;99.90
19224;DHT22;9746;47.180;9.776;2023-02-26T17:15:16;1.00;99.90
19224;DHT22;9746;47.180;9.776;2023-02-26T17:17:48;0.90;99.90
19224;DHT22;9746;47.180;9.776;2023-02-26T17:20:16;0.80;99.90
19224;DHT22;9746;47.180;9.776;2023-02-26T17:22:50;0.80;99.90
19224;DHT22;9746;47.180;9.776;2023-02-26T17:25:18;0.70;99.90
19224;DHT22;9746;47.180;9.776;2023-02-26T17:30:58;0.50;99.90
19224;DHT22;9746;47.180;9.776;2023-02-26T17:33:29;0.40;99.90
19224;DHT22;9746;47.180;9.776;2023-02-26T17:35:58;0.30;99.90
19224;DHT22;9746;47.180;9.776;2023-02-26T17:38:30;0.30;99.90
19224;DHT22;9746;47.180;9.776;2023-02-26T17:40:58;0.30;99.90
19224;DHT22;9746;47.180;9.776;2023-02-26T17:43:30;0.20;99.90
19224;DHT22;9746;47.180;9.776;2023-02-26T17:46:02;0.20;99.90
19224;DHT22;9746;47.180;9.776;2023-02-26T17:48:57;0.10;99.90
19224;DHT22;9746;47.180;9.776;2023-02-26T17:51:26;0.00;99.90
19224;DHT22;9746;47.180;9.776;2023-02-26T17:53:54;-0.10;99.90
19224;DHT22;9746;47.180;9.776;2023-02-26T17:56:28;-0.20;99.90
19224;DHT22;9746;47.180;9.776;2023-02-26T17:59:22;-0.20;99.90
19224;DHT22;9746;47.180;9.776;2023-02-26T18:01:51;-0.20;99.90
19224;DHT22;9746;47.180;9.776;2023-02-26T18:04:19;-0.20;99.90
19224;DHT22;9746;47.180;9.776;2023-02-26T18:06:48;-0.30;99.90
19224;DHT22;9746;47.180;9.776;2023-02-26T18:09:20;-0.30;99.90
19224;DHT22;9746;47.180;9.776;2023-02-26T18:11:47;-0.30;99.90
19224;DHT22;9746;47.180;9.776;2023-02-26T18:14:18;-0.40;99.90
19224;DHT22;9746;47.180;9.776;2023-02-26T18:16:45;-0.40;99.90
19224;DHT22;9746;47.180;9.776;2023-02-26T18:19:17;-0.50;99.90
19224;DHT22;9746;47.180;9.776;2023-02-26T18:21:44;-0.50;99.90
19224;DHT22;9746;47.180;9.776;2023-02-26T18:24:22;-0.50;99.90
19224;DHT22;9746;47.180;9.776;2023-02-26T18:26:50;-0.50;99.90
19224;DHT22;9746;47.180;9.776;2023-02-26T18:29:18;-0.50;99.90
19224;DHT22;9746;47.180;9.776;2023-02-26T18:31:46;-0.50;99.90
19224;DHT22;9746;47.180;9.776;2023-02-26T18:34:14;-0.50;99.90
19224;DHT22;9746;47.180;9.776;2023-02-26T18:36:49;-0.60;99.90
19224;DHT22;9746;47.180;9.776;2023-02-26T18:39:18;-0.50;99.90
19224;DHT22;9746;47.180;9.776;2023-02-26T18:41:48;-0.50;99.90
19224;DHT22;9746;47.180;9.776;2023-02-26T18:44:18;-0.50;99.90
19224;DHT22;9746;47.180;9.776;2023-02-26T18:46:52;-0.60;99.90
19224;DHT22;9746;47.180;9.776;2023-02-26T18:49:20;-0.60;99.90
19224;DHT22;9746;47.180;9.776;2023-02-26T18:51:50;-0.60;99.90
19224;DHT22;9746;47.180;9.776;2023-02-26T18:54:19;-0.60;99.90
19224;DHT22;9746;47.180;9.776;2023-02-26T18:56:47;-0.50;99.90
19224;DHT22;9746;47.180;9.776;2023-02-26T18:59:16;-0.50;99.90
19224;DHT22;9746;47.180;9.776;2023-02-26T19:01:46;-0.50;99.90
19224;DHT22;9746;47.180;9.776;2023-02-26T19:04:31;-0.50;99.90
19224;DHT22;9746;47.180;9.776;2023-02-26T19:07:00;-0.50;99.90
19224;DHT22;9746;47.180;9.776;2023-02-26T19:09:34;-0.50;99.90
19224;DHT22;9746;47.180;9.776;2023-02-26T19:12:04;-0.50;99.90
19224;DHT22;9746;47.180;9.776;2023-02-26T19:14:40;-0.50;99.90
19224;DHT22;9746;47.180;9.776;2023-02-26T19:17:10;-0.50;99.90
19224;DHT22;9746;47.180;9.776;2023-02-26T19:20:02;-0.50;99.90
19224;DHT22;9746;47.180;9.776;2023-02-26T19:22:35;-0.40;99.90
19224;DHT22;9746;47.180;9.776;2023-02-26T19:25:11;-0.40;99.90
19224;DHT22;9746;47.180;9.776;2023-02-26T19:30:53;-0.30;99.90
19224;DHT22;9746;47.180;9.776;2023-02-26T19:33:22;-0.30;99.90
19224;DHT22;9746;47.180;9.776;2023-02-26T19:35:50;-0.30;99.90
19224;DHT22;9746;47.180;9.776;2023-02-26T19:38:21;-0.30;99.90
19224;DHT22;9746;47.180;9.776;2023-02-26T19:40:52;-0.30;99.90
19224;DHT22;9746;47.180;9.776;2023-02-26T19:43:31;-0.30;99.90
19224;DHT22;9746;47.180;9.776;2023-02-26T19:46:03;-0.30;99.90
19224;DHT22;9746;47.180;9.776;2023-02-26T19:48:40;-0.30;99.90
19224;DHT22;9746;47.180;9.776;2023-02-26T19:51:08;-0.30;99.90
19224;DHT22;9746;47.180;9.776;2023-02-26T19:53:50;-0.30;99.90
19224;DHT22;9746;47.180;9.776;2023-02-26T19:56:32;-0.30;99.90
19224;DHT22;9746;47.180;9.776;2023-02-26T19:59:05;-0.30;99.90
19224;DHT22;9746;47.180;9.776;2023-02-26T20:01:35;-0.20;99.90
19224;DHT22;9746;47.180;9.776;2023-02-26T20:04:09;-0.20;99.90
19224;DHT22;9746;47.180;9.776;2023-02-26T20:06:36;-0.20;99.90
19224;DHT22;9746;47.180;9.776;2023-02-26T20:09:09;-0.20;99.90
19224;DHT22;9746;47.180;9.776;2023-02-26T20:11:40;-0.30;99.90
19224;DHT22;9746;47.180;9.776;2023-02-26T20:14:10;-0.20;99.90
19224;DHT22;9746;47.180;9.776;2023-02-26T20:16:40;-0.20;99.90
19224;DHT22;9746;47.180;9.776;2023-02-26T20:19:08;-0.20;99.90
19224;DHT22;9746;47.180;9.776;2023-02-26T20:21:35;-0.20;99.90
19224;DHT22;9746;47.180;9.776;2023-02-26T20:24:03;-0.30;99.90
19224;DHT22;9746;47.180;9.776;2023-02-26T20:26:32;-0.30;99.90
19224;DHT22;9746;47.180;9.776;2023-02-26T20:29:02;-0.30;99.90
19224;DHT22;9746;47.180;9.776;2023-02-26T20:31:29;-0.30;99.90
19224;DHT22;9746;47.180;9.776;2023-02-26T20:33:57;-0.30;99.90
19224;DHT22;9746;47.180;9.776;2023-02-26T20:36:25;-0.30;99.90
19224;DHT22;9746;47.180;9.776;2023-02-26T20:38:53;-0.30;99.90
19224;DHT22;9746;47.180;9.776;2023-02-26T20:41:21;-0.40;99.90
19224;DHT22;9746;47.180;9.776;2023-02-26T20:43:50;-0.50;99.90
19224;DHT22;9746;47.180;9.776;2023-02-26T20:46:17;-0.50;99.90
19224;DHT22;9746;47.180;9.776;2023-02-26T20:48:45;-0.50;99.90
19224;DHT22;9746;47.180;9.776;2023-02-26T20:51:12;-0.50;99.90
19224;DHT22;9746;47.180;9.776;2023-02-26T20:53:42;-0.50;99.90
19224;DHT22;9746;47.180;9.776;2023-02-26T20:56:11;-0.40;99.90
19224;DHT22;9746;47.180;9.776;2023-02-26T20:58:39;-0.40;99.90
19224;DHT22;9746;47.180;9.776;2023-02-26T21:01:08;-0.50;99.90
19224;DHT22;9746;47.180;9.776;2023-02-26T21:03:35;-0.50;99.90
19224;DHT22;9746;47.180;9.776;2023-02-26T21:06:03;-0.40;99.90
19224;DHT22;9746;47.180;9.776;2023-02-26T21:08:32;-0.40;99.90
19224;DHT22;9746;47.180;9.776;2023-02-26T21:10:59;-0.40;99.90
19224;DHT22;9746;47.180;9.776;2023-02-26T21:13:28;-0.50;99.90
19224;DHT22;9746;47.180;9.776;2023-02-26T21:15:55;-0.60;99.90
19224;DHT22;9746;47.180;9.776;2023-02-26T21:18:24;-0.60;99.90
19224;DHT22;9746;47.180;9.776;2023-02-26T21:20:52;-0.70;99.90
